Time;durP1;ratioP1;P1;durP2;ratioP2;P2;SDS_P1;SDS_P2;PMS_P1;PMS_P2;Temp;Humidity;BMP_temperature;BMP_pressure;BME280_temperature;BME280_humidity;BME280_pressure;Samples;Min_cycle;Max_cycle;Signal;HPM_P1;HPM_P2
2024/02/02 00:02:03;;;;;;;25.92;5.65;;;;;;;6.73;79.04;101135.38;4955549;28;20135;-77
2024/02/02 00:04:30;;;;;;;28.15;6.00;;;;;;;6.73;78.86;101127.53;4972369;28;20759;-76
2024/02/02 00:06:56;;;;;;;25.38;5.85;;;;;;;6.73;79.10;101131.00;4955329;28;20065;-78
2024/02/02 00:09:23;;;;;;;17.77;4.47;;;;;;;6.74;79.25;101130.13;4972650;28;20069;-76
2024/02/02 00:11:50;;;;;;;19.98;4.20;;;;;;;6.76;79.14;101120.47;4955045;28;20567;-77
2024/02/02 00:14:17;;;;;;;18.20;5.13;;;;;;;6.77;79.30;101121.34;4955136;28;20055;-79
2024/02/02 00:16:44;;;;;;;32.60;6.40;;;;;;;6.78;79.45;101131.75;4972135;28;20083;-77
2024/02/02 00:19:10;;;;;;;26.25;5.75;;;;;;;6.79;79.18;101127.41;4972138;28;20389;-78
2024/02/02 00:21:37;;;;;;;31.92;5.80;;;;;;;6.81;79.24;101116.91;4954930;28;20443;-77
2024/02/02 00:24:04;;;;;;;31.23;6.03;;;;;;;6.81;79.19;101106.44;4954852;28;20050;-78
2024/02/02 00:26:30;;;;;;;24.10;5.55;;;;;;;6.81;79.22;101098.59;4972051;28;20054;-77
2024/02/02 00:28:57;;;;;;;26.08;5.25;;;;;;;6.82;79.20;101089.84;4972024;28;20082;-78
2024/02/02 00:31:23;;;;;;;25.50;5.00;;;;;;;6.82;79.43;101097.69;4972346;28;20142;-78
2024/02/02 00:33:50;;;;;;;23.88;5.20;;;;;;;6.82;79.51;101098.56;4954839;28;20082;-77
2024/02/02 00:36:17;;;;;;;19.35;4.82;;;;;;;6.84;79.61;101104.63;4972015;28;20056;-78
2024/02/02 00:38:43;;;;;;;21.05;5.57;;;;;;;6.84;79.08;101102.00;4971866;28;20062;-78
2024/02/02 00:41:10;;;;;;;26.80;5.32;;;;;;;6.85;79.33;101102.88;4971440;28;20086;-77
2024/02/02 00:43:36;;;;;;;26.73;5.63;;;;;;;6.85;79.62;101106.38;4972122;28;20199;-77
2024/02/02 00:46:03;;;;;;;37.60;6.95;;;;;;;6.86;79.76;101099.34;4971686;28;20055;-78
2024/02/02 00:48:30;;;;;;;29.17;6.25;;;;;;;6.85;79.24;101093.28;4972073;28;20065;-77
2024/02/02 00:50:56;;;;;;;29.83;6.60;;;;;;;6.87;79.58;101094.09;4971865;28;20070;-78
2024/02/02 00:53:23;;;;;;;20.17;5.72;;;;;;;6.88;79.78;101098.44;4954631;28;20069;-77
2024/02/02 00:55:49;;;;;;;33.97;6.70;;;;;;;6.90;79.80;101090.56;4971446;28;20050;-79
2024/02/02 00:58:16;;;;;;;36.00;6.40;;;;;;;6.90;79.91;101080.09;4971840;28;20054;-77
2024/02/02 01:00:42;;;;;;;32.17;7.25;;;;;;;6.91;79.71;101082.66;4971832;28;20137;-77
2024/02/02 01:03:09;;;;;;;31.58;6.70;;;;;;;6.94;79.87;101083.50;4972021;28;20047;-77
2024/02/02 01:05:36;;;;;;;20.95;6.22;;;;;;;6.93;79.82;101079.16;4971554;28;20242;-77
2024/02/02 01:10:44;;;;;;;25.80;7.63;;;;;;;6.96;79.82;101072.13;4970663;28;20051;-75
2024/02/02 01:13:11;;;;;;;28.00;7.88;;;;;;;6.96;79.56;101090.44;4955367;28;20043;-75
2024/02/02 01:15:38;;;;;;;28.23;7.88;;;;;;;6.97;79.52;101091.28;4972229;28;20058;-74
2024/02/02 01:18:07;;;;;;;26.67;8.13;;;;;;;6.98;80.08;101082.53;4972057;28;20054;-75
2024/02/02 01:20:34;;;;;;;27.80;8.25;;;;;;;6.98;79.86;101087.78;4971553;28;20101;-74
2024/02/02 01:23:02;;;;;;;24.75;7.40;;;;;;;6.97;79.55;101081.69;4971627;28;20100;-75
2024/02/02 01:25:29;;;;;;;32.13;8.25;;;;;;;6.99;79.85;101081.66;4971473;28;20082;-75
2024/02/02 01:27:56;;;;;;;28.00;7.32;;;;;;;6.99;79.74;101072.03;4971595;28;20467;-75
2024/02/02 01:30:23;;;;;;;27.55;8.35;;;;;;;6.99;79.80;101074.66;4971459;28;20491;-74
2024/02/02 01:32:50;;;;;;;30.35;8.25;;;;;;;6.99;79.59;101069.41;4971255;28;20055;-75
2024/02/02 01:35:17;;;;;;;25.00;8.80;;;;;;;6.98;79.85;101074.69;4971211;28;20066;-77
2024/02/02 01:37:44;;;;;;;36.22;8.48;;;;;;;6.96;79.79;101079.97;4954047;28;20570;-73
2024/02/02 01:40:13;;;;;;;30.83;8.68;;;;;;;6.98;79.52;101095.63;4971422;28;20102;-77
2024/02/02 01:42:40;;;;;;;29.05;7.90;;;;;;;6.98;79.98;101093.00;4971246;28;20451;-76
2024/02/02 01:45:07;;;;;;;31.60;8.40;;;;;;;6.99;79.70;101094.75;4971200;28;20055;-76
2024/02/02 01:47:34;;;;;;;27.92;8.18;;;;;;;6.98;79.74;101082.53;4971275;28;20059;-73
2024/02/02 01:50:01;;;;;;;32.38;9.13;;;;;;;6.99;79.68;101089.50;4971340;28;20054;-75
2024/02/02 01:52:29;;;;;;;25.38;7.55;;;;;;;7.00;79.92;101088.63;4974487;28;20083;-76
2024/02/02 01:54:56;;;;;;;23.83;7.57;;;;;;;7.02;80.18;101079.84;4957474;28;20051;-75
2024/02/02 01:57:23;;;;;;;30.08;7.50;;;;;;;7.02;80.02;101081.56;4974757;28;20061;-76
2024/02/02 01:59:50;;;;;;;27.83;8.05;;;;;;;7.02;79.74;101079.84;4974737;28;20047;-75
2024/02/02 02:02:16;;;;;;;33.78;7.93;;;;;;;7.02;79.73;101085.06;4974709;28;20085;-75
2024/02/02 02:04:43;;;;;;;26.00;6.75;;;;;;;7.04;80.05;101072.78;4974225;28;20284;-77
2024/02/02 02:07:10;;;;;;;21.00;7.07;;;;;;;7.07;79.65;101071.91;4957583;28;20063;-74
2024/02/02 02:09:36;;;;;;;21.55;7.25;;;;;;;7.07;79.66;101064.03;4974444;28;20097;-77
2024/02/02 02:12:03;;;;;;;37.80;7.45;;;;;;;7.09;79.75;101059.63;4974489;28;20058;-76
2024/02/02 02:14:30;;;;;;;28.52;7.80;;;;;;;7.09;79.42;101058.75;4974397;28;20109;-75
2024/02/02 02:16:56;;;;;;;27.90;7.53;;;;;;;7.07;79.14;101056.19;4974132;28;20051;-76
2024/02/02 02:19:23;;;;;;;22.23;7.22;;;;;;;7.08;79.15;101057.91;4956850;28;20053;-75
2024/02/02 02:21:50;;;;;;;26.42;7.75;;;;;;;7.10;79.47;101052.63;4974472;28;20086;-74
2024/02/02 02:24:17;;;;;;;25.58;7.35;;;;;;;7.09;79.42;101057.00;4974201;28;20046;-76
2024/02/02 02:26:44;;;;;;;22.63;6.63;;;;;;;7.11;79.40;101067.44;4957057;28;20094;-74
2024/02/02 02:29:11;;;;;;;21.13;7.00;;;;;;;7.11;79.01;101070.91;4956882;28;20136;-76
2024/02/02 02:31:39;;;;;;;29.73;7.15;;;;;;;7.12;79.34;101061.31;4973818;28;20401;-74
2024/02/02 02:34:05;;;;;;;27.10;7.15;;;;;;;7.12;79.13;101058.69;4956494;28;20063;-75
2024/02/02 02:36:32;;;;;;;17.92;6.18;;;;;;;7.14;79.08;101064.78;4974072;28;20054;-74
2024/02/02 02:38:59;;;;;;;29.63;7.10;;;;;;;7.13;79.04;101056.03;4974021;28;20142;-75
2024/02/02 02:41:25;;;;;;;25.02;7.55;;;;;;;7.14;79.00;101056.91;4973749;28;20548;-76
2024/02/02 02:43:52;;;;;;;28.50;6.90;;;;;;;7.13;79.21;101050.81;4973569;28;20093;-74
2024/02/02 02:46:18;;;;;;;20.40;6.30;;;;;;;7.13;79.17;101056.03;4973701;28;20062;-75
2024/02/02 02:48:45;;;;;;;26.05;7.45;;;;;;;7.13;78.84;101042.94;4973943;28;20057;-75
2024/02/02 02:51:12;;;;;;;26.77;7.15;;;;;;;7.13;78.70;101040.31;4956971;28;20053;-75
2024/02/02 02:53:38;;;;;;;22.17;6.22;;;;;;;7.14;79.13;101044.66;4973698;28;20563;-74
2024/02/02 02:56:05;;;;;;;23.30;6.40;;;;;;;7.14;78.65;101036.81;4973424;28;20488;-76
2024/02/02 02:58:32;;;;;;;25.42;7.05;;;;;;;7.14;78.99;101033.34;4973755;28;20082;-75
2024/02/02 03:00:58;;;;;;;28.05;7.32;;;;;;;7.12;78.83;101028.13;4973440;28;20047;-74
2024/02/02 03:03:25;;;;;;;21.33;5.97;;;;;;;7.13;78.77;101035.09;4972791;28;20053;-76
2024/02/02 03:05:52;;;;;;;24.27;7.30;;;;;;;7.12;78.78;101037.75;4973145;28;20137;-75
2024/02/02 03:08:18;;;;;;;23.52;7.05;;;;;;;7.11;78.54;101038.63;4973574;28;20050;-75
2024/02/02 03:10:45;;;;;;;25.25;6.32;;;;;;;7.11;78.66;101038.63;4973394;28;20093;-74
2024/02/02 03:13:12;;;;;;;24.02;6.22;;;;;;;7.10;78.86;101045.63;4973377;28;20158;-74
2024/02/02 03:15:40;;;;;;;18.23;6.88;;;;;;;7.11;78.57;101042.09;4972902;28;20263;-74
2024/02/02 03:18:07;;;;;;;20.20;6.53;;;;;;;7.12;78.70;101042.97;4973469;28;20055;-76
2024/02/02 03:20:34;;;;;;;26.45;6.75;;;;;;;7.12;78.78;101022.03;4973060;28;20130;-75
2024/02/02 03:23:01;;;;;;;21.23;5.65;;;;;;;7.12;78.50;101014.16;4973222;28;20047;-77
2024/02/02 03:25:27;;;;;;;23.85;6.07;;;;;;;7.10;78.47;101006.34;4972926;28;20600;-78
2024/02/02 03:27:54;;;;;;;26.65;6.97;;;;;;;7.08;78.52;101005.53;4956168;28;20054;-75
2024/02/02 03:30:20;;;;;;;18.52;5.82;;;;;;;7.10;78.51;101018.59;4972887;28;20077;-76
2024/02/02 03:32:48;;;;;;;25.33;6.82;;;;;;;7.07;78.25;101022.16;4973119;28;20051;-76
2024/02/02 03:35:15;;;;;;;20.90;6.88;;;;;;;7.06;78.43;101022.19;4972601;28;20514;-74
2024/02/02 03:37:42;;;;;;;21.77;6.10;;;;;;;7.03;78.51;101023.94;4972872;28;20082;-75
2024/02/02 03:40:09;;;;;;;25.15;6.75;;;;;;;7.01;78.40;101027.50;4972802;28;20051;-77
2024/02/02 03:42:35;;;;;;;17.92;6.05;;;;;;;7.01;78.87;101025.75;4955791;28;20051;-75
2024/02/02 03:45:03;;;;;;;25.05;7.15;;;;;;;6.99;78.52;101031.91;4972991;28;20051;-75
2024/02/02 03:47:30;;;;;;;33.53;7.38;;;;;;;6.98;79.00;101019.69;4955736;28;20058;-74
2024/02/02 03:49:57;;;;;;;29.77;7.30;;;;;;;6.96;78.92;101025.00;4972761;28;20131;-75
2024/02/02 03:52:24;;;;;;;19.63;6.03;;;;;;;6.96;79.07;101031.97;4972717;28;20844;-76
2024/02/02 03:54:51;;;;;;;19.75;6.18;;;;;;;6.95;78.94;101020.63;4972333;28;20523;-74
2024/02/02 03:57:18;;;;;;;26.20;6.68;;;;;;;6.93;78.74;101027.66;4955340;28;20192;-76
2024/02/02 03:59:45;;;;;;;23.38;6.90;;;;;;;6.93;78.93;101032.91;4972860;28;20629;-76
2024/02/02 04:02:12;;;;;;;28.33;6.60;;;;;;;6.93;78.94;101024.19;4972486;28;20051;-74
2024/02/02 04:04:39;;;;;;;28.17;7.20;;;;;;;6.90;78.94;101023.38;4972312;28;20535;-77
2024/02/02 04:07:06;;;;;;;18.05;6.40;;;;;;;6.89;78.76;101018.16;4972493;28;20130;-76
2024/02/02 04:09:32;;;;;;;21.63;7.18;;;;;;;6.88;78.76;101026.91;4972531;28;20514;-76
2024/02/02 04:11:59;;;;;;;19.05;6.45;;;;;;;6.87;79.23;101009.47;4972660;28;20051;-74
2024/02/02 04:14:26;;;;;;;23.92;7.63;;;;;;;6.84;79.18;101007.78;4971887;28;20063;-76
2024/02/02 04:16:52;;;;;;;20.02;7.53;;;;;;;6.82;79.05;100990.38;4972321;28;20130;-75
2024/02/02 04:19:20;;;;;;;24.42;7.65;;;;;;;6.80;79.28;100989.56;4972277;28;20089;-73
2024/02/02 04:21:47;;;;;;;27.00;8.00;;;;;;;6.77;78.87;100980.03;4972051;28;20138;-75
2024/02/02 04:24:14;;;;;;;26.23;7.72;;;;;;;6.76;79.32;100971.31;4971782;28;20085;-75
2024/02/02 04:26:41;;;;;;;20.83;6.78;;;;;;;6.74;79.80;100964.38;4971738;28;20099;-78
2024/02/02 04:29:07;;;;;;;28.33;7.95;;;;;;;6.72;79.59;100963.53;4972135;28;20082;-74
2024/02/02 04:31:34;;;;;;;25.40;7.75;;;;;;;6.71;79.49;100972.28;4971827;28;20615;-74
2024/02/02 04:34:00;;;;;;;22.88;8.90;;;;;;;6.69;79.91;100955.78;4971683;28;20071;-76
2024/02/02 04:36:27;;;;;;;25.73;8.10;;;;;;;6.68;79.72;100954.91;4971670;28;20546;-77
2024/02/02 04:38:54;;;;;;;27.95;9.63;;;;;;;6.67;80.00;100954.94;4954516;28;20122;-74
2024/02/02 04:41:20;;;;;;;27.92;8.75;;;;;;;6.67;79.83;100952.31;4972179;28;20047;-76
2024/02/02 04:43:47;;;;;;;24.58;8.57;;;;;;;6.64;79.93;100946.28;4972040;28;20062;-75
2024/02/02 04:46:14;;;;;;;28.83;9.38;;;;;;;6.62;79.79;100941.97;4971541;28;20086;-74
2024/02/02 04:48:40;;;;;;;25.55;9.05;;;;;;;6.62;80.02;100934.97;4971659;28;20129;-75
2024/02/02 04:51:07;;;;;;;24.48;9.48;;;;;;;6.61;80.29;100933.25;4971728;28;20050;-76
2024/02/02 04:53:33;;;;;;;29.15;10.77;;;;;;;6.61;80.59;100937.59;4954425;28;20069;-74
2024/02/02 04:56:00;;;;;;;31.30;9.98;;;;;;;6.61;80.29;100941.09;4971587;28;20058;-74
2024/02/02 04:58:27;;;;;;;29.77;11.38;;;;;;;6.61;80.39;100929.75;4971568;28;20091;-76
2024/02/02 05:00:53;;;;;;;34.30;12.02;;;;;;;6.61;80.63;100921.91;4971529;28;20139;-75
2024/02/02 05:03:20;;;;;;;36.65;11.43;;;;;;;6.61;80.41;100922.78;4971650;28;20098;-75
2024/02/02 05:05:46;;;;;;;33.72;11.18;;;;;;;6.60;80.43;100910.59;4971570;28;20050;-76
2024/02/02 05:08:14;;;;;;;35.45;12.35;;;;;;;6.60;80.46;100881.81;4971482;28;20118;-74
2024/02/02 05:10:41;;;;;;;26.58;11.38;;;;;;;6.60;80.28;100870.47;4971822;28;20062;-75
2024/02/02 05:13:07;;;;;;;29.38;13.18;;;;;;;6.60;80.57;100867.88;4971507;28;20049;-75
2024/02/02 05:15:35;;;;;;;29.48;12.52;;;;;;;6.58;80.43;100869.69;4971192;28;20139;-76
2024/02/02 05:18:02;;;;;;;34.67;12.77;;;;;;;6.57;80.55;100852.22;4971835;28;20071;-74
2024/02/02 05:20:29;;;;;;;32.38;13.18;;;;;;;6.56;80.38;100867.09;4954299;28;20447;-75
2024/02/02 05:22:56;;;;;;;35.20;13.80;;;;;;;6.56;80.56;100860.97;4971425;28;20055;-74
2024/02/02 05:25:22;;;;;;;29.80;13.93;;;;;;;6.53;80.62;100848.84;4971713;28;20183;-75
2024/02/02 05:27:49;;;;;;;30.88;13.70;;;;;;;6.53;80.28;100848.84;4975584;28;20051;-74
2024/02/02 05:30:16;;;;;;;35.58;16.02;;;;;;;6.54;80.72;100858.41;4975373;28;20121;-77
2024/02/02 05:32:42;;;;;;;31.67;14.02;;;;;;;6.54;80.75;100857.56;4958211;28;20208;-75
2024/02/02 05:35:09;;;;;;;28.48;14.38;;;;;;;6.55;80.86;100856.66;4975048;28;20480;-75
2024/02/02 05:37:36;;;;;;;38.53;15.38;;;;;;;6.54;80.68;100874.09;4975336;28;20051;-75
2024/02/02 05:40:03;;;;;;;35.78;15.07;;;;;;;6.55;81.09;100857.53;4958102;28;20059;-76
2024/02/02 05:42:29;;;;;;;32.13;15.35;;;;;;;6.56;80.94;100869.69;4974900;28;20053;-75
2024/02/02 05:44:56;;;;;;;29.05;14.65;;;;;;;6.57;80.73;100863.56;4974958;28;20153;-76
2024/02/02 05:47:23;;;;;;;44.67;16.40;;;;;;;6.58;81.07;100865.28;4975126;28;20055;-74
2024/02/02 05:49:49;;;;;;;39.75;16.08;;;;;;;6.58;80.97;100865.28;4975138;28;20141;-75
2024/02/02 05:52:16;;;;;;;33.42;14.43;;;;;;;6.62;81.04;100860.88;4975279;28;20055;-75
2024/02/02 05:54:42;;;;;;;42.88;15.05;;;;;;;6.62;80.55;100850.41;4974681;28;20059;-75
2024/02/02 05:57:09;;;;;;;35.95;14.18;;;;;;;6.64;80.76;100844.22;4974557;28;20129;-76
2024/02/02 05:59:36;;;;;;;34.75;13.48;;;;;;;6.67;81.18;100837.19;4974619;28;20055;-76
2024/02/02 06:02:02;;;;;;;32.45;13.48;;;;;;;6.68;80.90;100833.66;4974747;28;20098;-76
2024/02/02 06:04:29;;;;;;;29.08;13.07;;;;;;;6.69;80.54;100833.63;4957341;28;20559;-76
2024/02/02 06:06:55;;;;;;;33.13;13.93;;;;;;;6.70;80.73;100832.78;4975001;28;20058;-76
2024/02/02 06:09:22;;;;;;;30.90;12.35;;;;;;;6.72;80.39;100827.47;4974613;28;20570;-75
2024/02/02 06:11:49;;;;;;;38.65;13.05;;;;;;;6.72;80.38;100814.38;4974674;28;20047;-75
2024/02/02 06:14:15;;;;;;;37.05;13.77;;;;;;;6.74;80.25;100813.47;4974248;28;20707;-76
2024/02/02 06:16:42;;;;;;;30.65;12.85;;;;;;;6.74;80.36;100817.84;4957432;28;20110;-75
2024/02/02 06:19:09;;;;;;;28.90;11.95;;;;;;;6.74;80.08;100830.94;4974660;28;20133;-76
2024/02/02 06:21:35;;;;;;;33.05;11.93;;;;;;;6.73;80.10;100822.22;4974447;28;20096;-76
2024/02/02 06:24:02;;;;;;;37.00;12.15;;;;;;;6.77;80.25;100823.00;4974381;28;20054;-77
2024/02/02 06:26:29;;;;;;;34.20;12.60;;;;;;;6.76;80.03;100805.56;4974323;28;20054;-76
2024/02/02 06:28:55;;;;;;;33.47;11.35;;;;;;;6.77;79.71;100799.47;4974292;28;20050;-76
2024/02/02 06:31:24;;;;;;;34.40;12.32;;;;;;;6.76;79.95;100806.44;4974239;28;20595;-76
2024/02/02 06:33:50;;;;;;;28.00;11.18;;;;;;;6.77;79.96;100812.53;4957121;28;20050;-76
2024/02/02 06:36:17;;;;;;;34.33;12.02;;;;;;;6.77;79.78;100812.53;4974149;28;20047;-78
2024/02/02 06:38:44;;;;;;;35.35;11.50;;;;;;;6.75;79.55;100811.72;4974177;28;20138;-77
2024/02/02 06:41:10;;;;;;;32.13;11.90;;;;;;;6.74;79.41;100802.16;4973811;28;20499;-75
2024/02/02 06:43:37;;;;;;;29.58;10.00;;;;;;;6.76;79.95;100805.56;4974056;28;20050;-75
2024/02/02 06:46:04;;;;;;;32.70;11.07;;;;;;;6.74;79.21;100803.03;4973822;28;20101;-75
2024/02/02 06:48:30;;;;;;;30.90;9.93;;;;;;;6.74;79.66;100817.84;4956887;28;20102;-75
2024/02/02 06:50:57;;;;;;;37.30;10.18;;;;;;;6.74;79.57;100825.69;4974082;28;20511;-76
2024/02/02 06:53:28;;;;;;;25.02;9.45;;;;;;;6.73;78.79;100818.75;4974023;28;20054;-75
2024/02/02 06:55:55;;;;;;;28.35;8.85;;;;;;;6.77;79.42;100833.47;4973684;28;20463;-77
2024/02/02 06:58:42;;;;;;;21.98;8.90;;;;;;;6.73;78.37;100826.59;4973852;28;20125;-75
2024/02/02 07:01:10;;;;;;;26.23;8.90;;;;;;;6.78;79.61;100819.50;4973812;28;20675;-76
2024/02/02 07:03:37;;;;;;;31.95;10.25;;;;;;;6.80;79.41;100822.06;4974074;28;20086;-74
2024/02/02 07:06:05;;;;;;;24.95;9.23;;;;;;;6.79;78.94;100831.69;4973477;28;20150;-76
2024/02/02 07:08:32;;;;;;;23.30;8.63;;;;;;;6.81;79.36;100826.41;4973611;28;20046;-76
2024/02/02 07:11:40;;;;;;;27.45;8.60;;;;;;;6.78;77.23;100835.19;4973639;28;20141;-76
2024/02/02 07:14:09;;;;;;;24.58;8.60;;;;;;;6.82;78.52;100828.13;4973552;28;20047;-75
2024/02/02 07:16:36;;;;;;;31.48;9.40;;;;;;;6.83;79.04;100828.09;4973492;28;20055;-77
2024/02/02 07:19:03;;;;;;;26.55;8.60;;;;;;;6.84;79.13;100840.28;4973446;28;20094;-75
2024/02/02 07:21:31;;;;;;;25.30;8.05;;;;;;;6.86;79.48;100842.84;4973360;28;20055;-75
2024/02/02 07:23:59;;;;;;;24.80;8.85;;;;;;;6.88;79.59;100838.47;4973252;28;20554;-75
2024/02/02 07:26:28;;;;;;;32.75;9.07;;;;;;;6.88;79.03;100831.44;4973424;28;20097;-76
2024/02/02 07:28:55;;;;;;;24.85;7.47;;;;;;;6.90;79.37;100829.66;4973467;28;20054;-75
2024/02/02 07:31:38;;;;;;;30.50;8.70;;;;;;;6.90;78.18;100832.28;4973417;28;20051;-75
2024/02/02 07:34:52;;;;;;;26.00;8.15;;;;;;;6.91;76.69;100823.53;4973322;28;20618;-75
2024/02/02 07:37:47;;;;;;;23.42;8.23;;;;;;;6.93;76.75;100825.25;4958881;28;20058;-74
2024/02/02 07:40:59;;;;;;;24.83;8.32;;;;;;;6.93;76.92;100827.84;4973167;28;20051;-74
2024/02/02 07:43:32;;;;;;;;;;;;;;;6.98;75.67;100825.97;4956804;28;20078;-76
2024/02/02 07:46:00;;;;;;;19.25;7.82;;;;;;;7.02;78.75;100825.00;4955916;28;19973;-75
2024/02/02 07:48:27;;;;;;;19.67;8.38;;;;;;;7.00;78.56;100821.59;4972568;28;20047;-75
2024/02/02 07:50:54;;;;;;;34.95;8.55;;;;;;;6.98;78.97;100816.38;4955797;28;20143;-74
2024/02/02 07:53:20;;;;;;;26.23;8.75;;;;;;;6.99;78.80;100822.50;4956042;28;20073;-75
2024/02/02 07:55:47;;;;;;;26.10;9.15;;;;;;;7.00;78.96;100819.81;4972797;28;20488;-74
2024/02/02 07:58:16;;;;;;;33.10;9.27;;;;;;;7.01;78.98;100823.31;4955862;28;20138;-75
2024/02/02 08:00:42;;;;;;;35.25;9.07;;;;;;;7.03;79.08;100809.28;4972771;28;20129;-74
2024/02/02 08:03:09;;;;;;;33.70;8.85;;;;;;;7.06;79.19;100810.94;4972585;28;20510;-76
2024/02/02 08:05:39;;;;;;;28.42;9.20;;;;;;;7.08;79.29;100806.56;4972635;28;20062;-77
2024/02/02 08:08:06;;;;;;;35.15;9.25;;;;;;;7.12;78.93;100816.03;4972820;28;20043;-74
2024/02/02 08:10:33;;;;;;;28.45;9.13;;;;;;;7.14;79.01;100798.53;4972579;28;20130;-74
2024/02/02 08:12:59;;;;;;;26.83;9.48;;;;;;;7.17;79.00;100802.81;4972590;28;20137;-75
2024/02/02 08:15:26;;;;;;;29.77;8.98;;;;;;;7.21;79.20;100808.84;4955167;28;20046;-74
2024/02/02 08:17:53;;;;;;;28.30;8.65;;;;;;;7.23;79.20;100800.06;4972727;28;20051;-75
2024/02/02 08:20:20;;;;;;;30.38;9.48;;;;;;;7.26;79.09;100801.72;4972562;28;20094;-74
2024/02/02 08:22:46;;;;;;;20.83;9.27;;;;;;;7.29;79.01;100797.25;4972492;28;20047;-74
2024/02/02 08:25:13;;;;;;;29.77;9.57;;;;;;;7.31;78.43;100789.38;4972283;28;20131;-74
2024/02/02 08:27:40;;;;;;;24.52;9.10;;;;;;;7.35;79.03;100798.88;4972293;28;20086;-76
2024/02/02 08:30:08;;;;;;;28.98;9.50;;;;;;;7.35;78.72;100788.38;4972039;28;20146;-74
2024/02/02 08:32:35;;;;;;;27.95;10.07;;;;;;;7.38;78.68;100785.69;4972535;28;20078;-75
2024/02/02 08:35:01;;;;;;;36.67;10.35;;;;;;;7.38;78.51;100785.69;4972163;28;20055;-73
2024/02/02 08:37:28;;;;;;;24.55;10.13;;;;;;;7.39;78.76;100779.53;4955114;28;20054;-74
2024/02/02 08:39:56;;;;;;;28.65;10.50;;;;;;;7.41;78.45;100772.50;4954983;28;20046;-76
2024/02/02 08:42:23;;;;;;;33.75;10.32;;;;;;;7.44;78.56;100776.78;4954955;28;20134;-74
2024/02/02 08:44:51;;;;;;;35.58;10.07;;;;;;;7.46;78.58;100771.50;4954682;28;20057;-75
2024/02/02 08:47:19;;;;;;;31.73;10.10;;;;;;;7.46;78.44;100780.25;4972498;28;20125;-74
2024/02/02 08:49:53;;;;;;;37.58;11.57;;;;;;;7.48;78.22;100770.56;4971979;28;20125;-74
2024/02/02 08:52:30;;;;;;;27.98;9.88;;;;;;;7.49;76.62;100766.19;4972300;28;20057;-74
2024/02/02 08:54:57;;;;;;;31.23;10.70;;;;;;;7.52;78.29;100756.47;4954693;28;20069;-75
2024/02/02 08:57:31;;;;;;;31.98;10.82;;;;;;;7.52;77.19;100758.25;4972358;28;20566;-74
2024/02/02 09:00:09;;;;;;;32.65;10.80;;;;;;;7.57;78.32;100753.75;4971690;28;20063;-74
2024/02/02 09:03:05;;;;;;;24.02;10.32;;;;;;;7.54;75.61;100753.81;4954531;28;20043;-75
2024/02/02 09:05:55;;;;;;;29.42;10.90;;;;;;;7.58;75.61;100765.09;4954680;28;20054;-75
2024/02/02 09:08:34;;;;;;;30.10;10.90;;;;;;;7.59;76.77;100757.16;4954486;28;20062;-76
2024/02/02 09:11:16;;;;;;;30.10;11.65;;;;;;;7.59;75.98;100756.31;4972074;28;20093;-73
2024/02/02 09:13:45;;;;;;;25.42;11.30;;;;;;;7.64;78.16;100750.06;4971880;28;20142;-78
2024/02/02 09:16:17;;;;;;;24.40;11.25;;;;;;;7.62;76.87;100753.63;4971486;28;20055;-75
2024/02/02 09:18:51;;;;;;;23.88;11.25;;;;;;;7.64;78.33;100752.66;4971944;28;20051;-74
2024/02/02 09:21:20;;;;;;;29.98;12.57;;;;;;;7.64;77.84;100746.56;4971819;28;20055;-75
2024/02/02 09:23:50;;;;;;;26.17;11.95;;;;;;;7.63;76.98;100745.69;4971861;28;20062;-74
2024/02/02 09:26:32;;;;;;;31.48;13.15;;;;;;;7.61;75.70;100742.28;4971674;28;20054;-74
2024/02/02 09:29:00;;;;;;;33.67;13.38;;;;;;;7.67;78.21;100734.22;4972143;28;20125;-75
2024/02/02 09:31:32;;;;;;;31.63;12.85;;;;;;;7.68;78.59;100746.44;4971905;28;20051;-74
2024/02/02 09:34:04;;;;;;;34.08;13.27;;;;;;;7.66;77.37;100729.88;4971751;28;20547;-77
2024/02/02 09:36:31;;;;;;;36.47;13.23;;;;;;;7.69;78.28;100740.28;4971887;28;20064;-76
2024/02/02 09:39:03;;;;;;;27.50;13.27;;;;;;;7.71;78.61;100728.91;4971492;28;20051;-76
2024/02/02 09:42:08;;;;;;;29.80;13.50;;;;;;;7.67;76.79;100730.75;4971799;28;20047;-75
2024/02/02 09:44:53;;;;;;;37.95;14.02;;;;;;;7.68;76.13;100733.34;4971377;28;20456;-74
2024/02/02 09:47:32;;;;;;;36.33;13.40;;;;;;;7.72;77.55;100727.97;4971480;28;20105;-74
2024/02/02 09:50:25;;;;;;;33.78;12.98;;;;;;;7.71;77.07;100724.53;4954583;28;20058;-74
2024/02/02 09:53:32;;;;;;;32.85;13.75;;;;;;;7.71;75.57;100734.13;4971472;28;20578;-73
2024/02/02 09:56:05;;;;;;;34.10;14.00;;;;;;;7.73;77.88;100727.94;4971335;28;20130;-76
2024/02/02 09:58:45;;;;;;;35.05;13.75;;;;;;;7.77;78.75;100726.06;4971491;28;20133;-74
2024/02/02 10:01:46;;;;;;;32.63;13.30;;;;;;;7.76;77.72;100719.13;4971305;28;20094;-74
2024/02/02 10:04:43;;;;;;;33.15;14.38;;;;;;;7.77;76.99;100720.84;4971456;28;20484;-73
2024/02/02 10:07:44;;;;;;;31.92;13.70;;;;;;;7.81;77.55;100733.81;4954511;28;20425;-75
2024/02/02 10:10:44;;;;;;;29.77;13.95;;;;;;;7.84;76.71;100745.97;4971686;28;20539;-75
2024/02/02 10:13:26;;;;;;;35.38;14.73;;;;;;;7.86;76.60;100735.44;4974076;28;20055;-75
2024/02/02 10:16:14;;;;;;;38.40;14.00;;;;;;;7.89;78.47;100736.19;4974645;28;20055;-75
2024/02/02 10:19:01;;;;;;;37.33;15.57;;;;;;;7.88;77.93;100734.50;4974700;28;20504;-78
2024/02/02 10:22:04;;;;;;;31.60;14.02;;;;;;;7.91;77.44;100729.16;4974596;28;20051;-73
2024/02/02 10:25:08;;;;;;;30.85;14.57;;;;;;;7.93;76.83;100744.84;4974274;28;20093;-76
2024/02/02 10:27:44;;;;;;;39.00;15.02;;;;;;;7.97;77.99;100745.59;4974660;28;20047;-75
2024/02/02 10:30:14;;;;;;;40.35;15.40;;;;;;;7.99;79.16;100742.03;4974622;28;20759;-74
2024/02/02 10:32:51;;;;;;;37.40;16.00;;;;;;;7.98;78.95;100745.56;4974517;28;20047;-75
2024/02/02 10:35:36;;;;;;;32.67;15.57;;;;;;;8.01;78.73;100742.00;4974130;28;20054;-74
2024/02/02 10:38:19;;;;;;;38.13;16.38;;;;;;;8.02;78.17;100720.97;4974536;28;20043;-75
2024/02/02 10:41:15;;;;;;;30.95;15.43;;;;;;;8.05;78.08;100726.13;4957175;28;20098;-75
2024/02/02 10:43:48;;;;;;;36.83;15.73;;;;;;;8.10;78.97;100733.84;4961909;28;20098;-75
2024/02/02 10:46:29;;;;;;;34.78;16.58;;;;;;;8.12;78.86;100723.31;4974066;28;20117;-74
2024/02/02 10:49:26;;;;;;;31.35;16.30;;;;;;;8.12;77.78;100724.19;4957013;28;20133;-74
2024/02/02 10:52:13;;;;;;;29.63;15.05;;;;;;;8.15;78.18;100731.94;4974117;28;20059;-76
2024/02/02 10:54:51;;;;;;;36.35;16.38;;;;;;;8.21;79.76;100720.38;4973879;28;20534;-74
2024/02/02 10:57:48;;;;;;;39.25;16.95;;;;;;;8.23;78.38;100725.59;4974236;28;20047;-76
2024/02/02 11:00:20;;;;;;;43.42;17.67;;;;;;;8.27;79.68;100722.84;4957039;28;20877;-74
2024/02/02 11:02:51;;;;;;;;;;;;;;;8.30;76.87;100719.25;4974304;28;20062;-74
2024/02/02 11:05:28;;;;;;;37.90;16.55;;;;;;;8.35;78.20;100714.72;4973640;28;19929;-73
2024/02/02 11:08:15;;;;;;;34.00;16.23;;;;;;;8.35;77.72;100718.19;4973824;28;20058;-73
2024/02/02 11:10:50;;;;;;;33.28;16.85;;;;;;;8.40;78.44;100717.16;4973546;28;20153;-75
2024/02/02 11:13:38;;;;;;;39.05;16.38;;;;;;;8.42;78.43;100703.13;4956471;28;20093;-75
2024/02/02 11:16:23;;;;;;;35.88;16.33;;;;;;;8.48;80.25;100707.28;4973482;28;20121;-75
2024/02/02 11:19:08;;;;;;;34.38;17.08;;;;;;;8.47;77.66;100713.44;4973590;28;20397;-77
2024/02/02 11:22:03;;;;;;;37.90;17.10;;;;;;;8.52;78.26;100705.44;4973692;28;20554;-75
2024/02/02 11:24:50;;;;;;;38.53;17.45;;;;;;;8.56;77.45;100688.72;4972585;28;20114;-74
2024/02/02 11:27:24;;;;;;;39.78;18.58;;;;;;;8.59;77.76;100693.84;4973341;28;20057;-75
2024/02/02 11:30:12;;;;;;;40.78;18.33;;;;;;;8.60;78.05;100679.84;4973324;28;20137;-74
2024/02/02 11:33:12;;;;;;;38.28;18.23;;;;;;;8.63;77.35;100669.22;4973476;28;20484;-75
2024/02/02 11:35:53;;;;;;;42.63;18.05;;;;;;;8.66;78.12;100669.09;4972912;28;20058;-74
2024/02/02 11:38:46;;;;;;;42.90;18.33;;;;;;;8.70;77.21;100668.09;4973269;28;20566;-75
2024/02/02 11:41:19;;;;;;;38.70;17.23;;;;;;;8.72;78.03;100663.63;4973155;28;20046;-76
2024/02/02 11:43:47;;;;;;;35.92;18.73;;;;;;;8.77;79.52;100666.13;4972991;28;20114;-75